Airfield :
LOGIN :

Register | Disclaimer

   EN    FR    IT 

 










Legend :    VFR   Marginal VFR   IFR   Intensive IFR   Very Intensive IFR
Visi :
Ceiling :
>= 8 km
>= 3000ft
5 to 8 km
1000 to 3000 ft
1500m to 5 km
500 to 1000 ft
800 to 1500m
200 to 500 ft
< 800m
< 200 ft
Symbols :   Thunderstorms  Fog  Heavy snow  Heavy precipitations  Wind > 20 kt
SIGMETs :     Misc.  Thunderstorms  Icing  Turbulence  Mountain Waves  Volcanic Ashes







- Airport Elevation : 2731 ft
- IATA code : LPY
- Download approach charts


LFHP - Le Puy Loudes

CURRENT METAR :
  • 251900Z AUTO 36012KT 320V020 9999 FEW039 SCT056 04/M04 Q1023

EXPIRED METARs :
  • 251830Z AUTO 01015KT 9999 BKN041 OVC048 04/M04 Q1023
  • 251800Z AUTO 02016KT 9999 BKN043 BKN054 05/M04 Q1023
  • 251730Z AUTO 01013KT 9999 BKN041 BKN048 05/M03 Q1022
  • 251700Z AUTO 02016KT 9999 BKN037 OVC044 05/M03 Q1022

Expired Forecast.
No reported NOTAMs for that airfield.
2 SIGMETs reported for the Marseille FIR (LFMM) :
 
Severe turbulence
LFMM SIGMET 5 VALID 252000/260000 LFPW
LFMM MARSEILLE FIR/UIR SEV TURB FCST WI N4630 E00630 - N4630 E00700 - N4500 E00700 - N4230 E00515 - N4200 E00415 - N4215 E00230 - N4345 E00245 - N4515 E00330 - N4630 E00630 SFC/FL080 STNR NC=
Severe turbulence
LFMM SIGMET 4 VALID 251600/252000 LFPW
LFMM MARSEILLE FIR/UIR SEV TURB FCST WI N4200 E00430 - N4215 E00230 - N4330 E00245 - N4515 E00430 - N4515 E00530 - N4230 E00700 - N4200 E00430 SFC/FL060 STNR NC=



MET'MAP, your aeronautical weather chart ! - Copyright ORBIFLY December 2007 - Disclaimer

ORBIFLY MET'MAP TEAM :

Programming & Development : Alexandra Zaïnal
Concept & Development : Baudouin d'Aumeries
Co-Development & Prog : Marc-Olivier Méhu
Technical & hardware support : Manuel Goepfert

Contact : metmap@orbifly.com




SOURCES & CREDITS :

   NOAA